LFPO/ORY METAR and TAF weather

Enter ICAO airport designator
Station Type Date Time Source
LFPO METAR 2019/04/18 15:00 UTC NOAA

LFPO 181500Z 09011KT 020V130 CAVOK 22/09 Q1018 NOSIG


Station Type Date Time Source
LFPO Decoded METAR 2019/04/18 15:00 UTC NOAA

Paris-Orly, France (LFPO) 48-44N 002-24E 96M
Apr 18, 2019 - 11:00 AM EDT / 2019.04.18 1500 UTC
Wind: from the E (090 degrees) at 13 MPH (11 KT) (direction variable):0
Visibility: greater than 7 mile(s):0
Temperature: 71 F (22 C)
Dew Point: 48 F (9 C)
Relative Humidity: 43%
Pressure (altimeter): 30.06 in. Hg (1018 hPa)
ob: LFPO 181500Z 09011KT 020V130 CAVOK 22/09 Q1018 NOSIG
cycle: 15

Station Type Date Time Source
LFPO TAF 2019/04/18 12:21 UTC NOAA

TAF LFPO 181100Z 1812/1918 08010KT CAVOK PROB40
TEMPO 1916/1918 02015G25KT SHRA SCT060CB

Example: see airport list